Main page
METAR-TAF:

METAR-TAF

Airports :

Deauville – Normandie Airport

Deauville, France

latitude: 49-21-55N, longitude: 000-09-16E, elevation: 146 m

Current weather observation

The report was made 21 minutes ago, at 02:00 UTC
Wind 2 kt from variable directions
Temperature 6°C
Humidity 93%
Pressure 1034 hPa
Visibility 10 km or more
Broken clouds at a height of 2500 ft

METAR: LFRG 210200Z AUTO VRB02KT 9999 BKN025 06/05 Q1034

Time: 03:21 (02:21 UTC)

Forecast

The report was made 12 hours and 21 minutes ago, at 14:00 UTC
Forecast valid from 20 at 15 UTC to 20 at 24 UTC
Wind 3 kt from variable directions
Visibility 10 km or more
Broken clouds at a height of 2000 ft

TAF: LFRG 201400Z 2015/2024 VRB03KT 9999 BKN020

Weather observations and forecasts of more than 4000 airports (METAR and TAF reports).

The available stations are represented by yellow and red dots on the map.

Hover mouse over dot to see the name of the station.

Then click to see weather observations and forecasts.

To change the map : click on the green buttons with a black cross to zoom in, on the green button with a dash to zoom out, or on the green arrows for adjacent maps.


METAR-TAF: